sensor_id;sensor_type;location;lat;lon;timestamp;P1;durP1;ratioP1;P2;durP2;ratioP2
4553;SDS011;2289;48.316;15.174;2022-12-29T00:02:13;6.40;;;2.07;;
4553;SDS011;2289;48.316;15.174;2022-12-29T00:04:42;2.20;;;1.70;;
4553;SDS011;2289;48.316;15.174;2022-12-29T00:07:11;3.00;;;2.13;;
4553;SDS011;2289;48.316;15.174;2022-12-29T00:09:40;1.50;;;1.40;;
4553;SDS011;2289;48.316;15.174;2022-12-29T00:12:09;1.57;;;1.40;;
4553;SDS011;2289;48.316;15.174;2022-12-29T00:14:37;1.73;;;1.50;;
4553;SDS011;2289;48.316;15.174;2022-12-29T00:17:25;2.73;;;2.50;;
4553;SDS011;2289;48.316;15.174;2022-12-29T00:19:54;7.03;;;5.30;;
4553;SDS011;2289;48.316;15.174;2022-12-29T00:22:40;8.40;;;6.10;;
4553;SDS011;2289;48.316;15.174;2022-12-29T00:25:28;10.57;;;5.53;;
4553;SDS011;2289;48.316;15.174;2022-12-29T00:28:14;7.93;;;5.87;;
4553;SDS011;2289;48.316;15.174;2022-12-29T00:31:00;6.67;;;4.23;;
4553;SDS011;2289;48.316;15.174;2022-12-29T00:33:48;5.43;;;3.77;;
4553;SDS011;2289;48.316;15.174;2022-12-29T00:36:35;13.07;;;9.87;;
4553;SDS011;2289;48.316;15.174;2022-12-29T00:39:06;17.00;;;9.67;;
4553;SDS011;2289;48.316;15.174;2022-12-29T00:41:54;12.50;;;7.97;;
4553;SDS011;2289;48.316;15.174;2022-12-29T00:44:43;9.10;;;7.60;;
4553;SDS011;2289;48.316;15.174;2022-12-29T00:47:12;6.27;;;4.50;;
4553;SDS011;2289;48.316;15.174;2022-12-29T00:49:44;4.63;;;3.80;;
4553;SDS011;2289;48.316;15.174;2022-12-29T00:52:12;4.47;;;3.10;;
4553;SDS011;2289;48.316;15.174;2022-12-29T00:54:43;7.77;;;3.40;;
4553;SDS011;2289;48.316;15.174;2022-12-29T00:57:12;3.83;;;2.33;;
4553;SDS011;2289;48.316;15.174;2022-12-29T00:59:41;2.03;;;1.60;;
4553;SDS011;2289;48.316;15.174;2022-12-29T01:02:10;3.50;;;1.90;;
4553;SDS011;2289;48.316;15.174;2022-12-29T01:04:39;1.27;;;1.17;;
4553;SDS011;2289;48.316;15.174;2022-12-29T01:07:10;2.97;;;1.57;;
4553;SDS011;2289;48.316;15.174;2022-12-29T01:09:38;1.33;;;1.10;;
4553;SDS011;2289;48.316;15.174;2022-12-29T01:12:24;1.37;;;1.07;;
4553;SDS011;2289;48.316;15.174;2022-12-29T01:15:07;1.43;;;1.10;;
4553;SDS011;2289;48.316;15.174;2022-12-29T01:17:37;1.93;;;1.30;;
4553;SDS011;2289;48.316;15.174;2022-12-29T01:20:06;2.67;;;1.77;;
4553;SDS011;2289;48.316;15.174;2022-12-29T01:22:36;4.13;;;3.73;;
4553;SDS011;2289;48.316;15.174;2022-12-29T01:25:05;7.67;;;4.60;;
4553;SDS011;2289;48.316;15.174;2022-12-29T01:27:34;6.23;;;4.73;;
4553;SDS011;2289;48.316;15.174;2022-12-29T01:30:04;7.07;;;4.97;;
4553;SDS011;2289;48.316;15.174;2022-12-29T01:32:33;5.47;;;3.47;;
4553;SDS011;2289;48.316;15.174;2022-12-29T01:35:02;2.87;;;1.10;;
4553;SDS011;2289;48.316;15.174;2022-12-29T01:37:31;1.53;;;1.43;;
4553;SDS011;2289;48.316;15.174;2022-12-29T01:40:02;2.03;;;1.37;;
4553;SDS011;2289;48.316;15.174;2022-12-29T01:42:31;2.50;;;2.07;;
4553;SDS011;2289;48.316;15.174;2022-12-29T01:45:00;3.70;;;2.60;;
4553;SDS011;2289;48.316;15.174;2022-12-29T01:47:31;8.10;;;4.43;;
4553;SDS011;2289;48.316;15.174;2022-12-29T01:50:04;7.47;;;4.63;;
4553;SDS011;2289;48.316;15.174;2022-12-29T01:52:37;14.50;;;8.07;;
4553;SDS011;2289;48.316;15.174;2022-12-29T01:55:12;28.00;;;13.47;;
4553;SDS011;2289;48.316;15.174;2022-12-29T01:57:42;23.30;;;13.03;;
4553;SDS011;2289;48.316;15.174;2022-12-29T02:00:13;21.00;;;11.67;;
4553;SDS011;2289;48.316;15.174;2022-12-29T02:02:45;14.47;;;6.50;;
4553;SDS011;2289;48.316;15.174;2022-12-29T02:05:18;1.97;;;1.70;;
4553;SDS011;2289;48.316;15.174;2022-12-29T02:07:51;3.20;;;1.80;;
4553;SDS011;2289;48.316;15.174;2022-12-29T02:10:23;3.60;;;1.97;;
4553;SDS011;2289;48.316;15.174;2022-12-29T02:12:53;1.77;;;1.07;;
4553;SDS011;2289;48.316;15.174;2022-12-29T02:15:22;1.57;;;0.70;;
4553;SDS011;2289;48.316;15.174;2022-12-29T02:18:17;2.20;;;1.43;;
4553;SDS011;2289;48.316;15.174;2022-12-29T02:24:16;0.90;;;0.90;;
4553;SDS011;2289;48.316;15.174;2022-12-29T02:30:06;1.00;;;0.90;;
4553;SDS011;2289;48.316;15.174;2022-12-29T02:32:48;3.20;;;0.97;;
4553;SDS011;2289;48.316;15.174;2022-12-29T02:35:23;0.83;;;0.83;;
4553;SDS011;2289;48.316;15.174;2022-12-29T02:37:59;0.80;;;0.80;;
4553;SDS011;2289;48.316;15.174;2022-12-29T02:40:37;0.80;;;0.80;;
4553;SDS011;2289;48.316;15.174;2022-12-29T02:43:11;0.70;;;0.60;;
4553;SDS011;2289;48.316;15.174;2022-12-29T02:45:49;0.80;;;0.70;;
4553;SDS011;2289;48.316;15.174;2022-12-29T02:48:24;0.63;;;0.60;;
4553;SDS011;2289;48.316;15.174;2022-12-29T02:50:59;2.07;;;1.30;;
4553;SDS011;2289;48.316;15.174;2022-12-29T02:53:30;2.50;;;2.13;;
4553;SDS011;2289;48.316;15.174;2022-12-29T02:56:18;3.00;;;2.03;;
4553;SDS011;2289;48.316;15.174;2022-12-29T02:58:47;4.87;;;2.87;;
4553;SDS011;2289;48.316;15.174;2022-12-29T03:01:23;6.23;;;4.63;;
4553;SDS011;2289;48.316;15.174;2022-12-29T03:04:03;4.83;;;3.47;;
4553;SDS011;2289;48.316;15.174;2022-12-29T03:06:43;6.37;;;4.13;;
4553;SDS011;2289;48.316;15.174;2022-12-29T03:09:25;6.33;;;3.63;;
4553;SDS011;2289;48.316;15.174;2022-12-29T03:11:58;8.30;;;3.77;;
4553;SDS011;2289;48.316;15.174;2022-12-29T03:14:39;3.53;;;1.93;;
4553;SDS011;2289;48.316;15.174;2022-12-29T03:17:35;4.97;;;2.27;;
4553;SDS011;2289;48.316;15.174;2022-12-29T03:20:10;3.90;;;3.40;;
4553;SDS011;2289;48.316;15.174;2022-12-29T03:22:44;3.00;;;2.20;;
4553;SDS011;2289;48.316;15.174;2022-12-29T03:25:17;2.87;;;2.00;;
4553;SDS011;2289;48.316;15.174;2022-12-29T03:27:49;1.63;;;1.30;;
4553;SDS011;2289;48.316;15.174;2022-12-29T03:30:20;1.43;;;1.20;;
4553;SDS011;2289;48.316;15.174;2022-12-29T03:32:49;2.50;;;1.40;;
4553;SDS011;2289;48.316;15.174;2022-12-29T03:35:21;1.50;;;0.70;;
4553;SDS011;2289;48.316;15.174;2022-12-29T03:37:55;0.80;;;0.80;;
4553;SDS011;2289;48.316;15.174;2022-12-29T03:40:27;1.10;;;1.00;;
4553;SDS011;2289;48.316;15.174;2022-12-29T03:42:57;2.60;;;1.20;;
4553;SDS011;2289;48.316;15.174;2022-12-29T03:45:29;0.70;;;0.70;;
4553;SDS011;2289;48.316;15.174;2022-12-29T03:47:58;1.57;;;0.73;;
4553;SDS011;2289;48.316;15.174;2022-12-29T03:50:29;0.70;;;0.70;;
4553;SDS011;2289;48.316;15.174;2022-12-29T03:52:57;1.17;;;1.17;;
4553;SDS011;2289;48.316;15.174;2022-12-29T03:55:26;1.33;;;1.03;;
4553;SDS011;2289;48.316;15.174;2022-12-29T03:57:58;1.10;;;0.97;;
4553;SDS011;2289;48.316;15.174;2022-12-29T04:00:27;2.00;;;1.10;;
4553;SDS011;2289;48.316;15.174;2022-12-29T04:06:16;9.90;;;3.83;;
4553;SDS011;2289;48.316;15.174;2022-12-29T04:08:44;6.50;;;4.27;;
4553;SDS011;2289;48.316;15.174;2022-12-29T04:11:13;6.23;;;4.13;;
4553;SDS011;2289;48.316;15.174;2022-12-29T04:13:44;8.90;;;3.83;;
4553;SDS011;2289;48.316;15.174;2022-12-29T04:16:12;4.30;;;3.10;;
4553;SDS011;2289;48.316;15.174;2022-12-29T04:18:41;2.33;;;2.07;;
4553;SDS011;2289;48.316;15.174;2022-12-29T04:21:10;5.07;;;3.20;;
4553;SDS011;2289;48.316;15.174;2022-12-29T04:23:39;2.37;;;2.17;;
4553;SDS011;2289;48.316;15.174;2022-12-29T04:26:14;4.63;;;3.60;;
4553;SDS011;2289;48.316;15.174;2022-12-29T04:28:42;9.50;;;5.47;;
4553;SDS011;2289;48.316;15.174;2022-12-29T04:31:11;8.40;;;5.27;;
4553;SDS011;2289;48.316;15.174;2022-12-29T04:33:41;2.50;;;2.30;;
4553;SDS011;2289;48.316;15.174;2022-12-29T04:36:10;2.83;;;1.80;;
4553;SDS011;2289;48.316;15.174;2022-12-29T04:38:41;10.53;;;2.23;;
4553;SDS011;2289;48.316;15.174;2022-12-29T04:41:09;4.23;;;1.90;;
4553;SDS011;2289;48.316;15.174;2022-12-29T04:43:38;5.57;;;3.50;;
4553;SDS011;2289;48.316;15.174;2022-12-29T04:46:07;10.73;;;7.30;;
4553;SDS011;2289;48.316;15.174;2022-12-29T04:48:36;11.53;;;7.27;;
4553;SDS011;2289;48.316;15.174;2022-12-29T04:51:05;18.17;;;9.10;;
4553;SDS011;2289;48.316;15.174;2022-12-29T04:53:35;13.00;;;6.90;;
4553;SDS011;2289;48.316;15.174;2022-12-29T04:56:05;12.83;;;7.70;;
4553;SDS011;2289;48.316;15.174;2022-12-29T04:58:34;21.43;;;11.67;;
4553;SDS011;2289;48.316;15.174;2022-12-29T05:01:03;24.40;;;11.90;;
4553;SDS011;2289;48.316;15.174;2022-12-29T05:03:33;13.03;;;7.40;;
4553;SDS011;2289;48.316;15.174;2022-12-29T05:06:01;21.50;;;11.57;;
4553;SDS011;2289;48.316;15.174;2022-12-29T05:08:30;23.30;;;13.27;;
4553;SDS011;2289;48.316;15.174;2022-12-29T05:11:01;18.93;;;9.77;;
4553;SDS011;2289;48.316;15.174;2022-12-29T05:13:31;9.90;;;6.63;;
4553;SDS011;2289;48.316;15.174;2022-12-29T05:15:59;15.10;;;8.87;;
4553;SDS011;2289;48.316;15.174;2022-12-29T05:18:30;15.83;;;9.60;;
4553;SDS011;2289;48.316;15.174;2022-12-29T05:20:59;12.20;;;7.50;;
4553;SDS011;2289;48.316;15.174;2022-12-29T05:23:28;8.77;;;5.63;;
4553;SDS011;2289;48.316;15.174;2022-12-29T05:25:56;7.90;;;4.60;;
4553;SDS011;2289;48.316;15.174;2022-12-29T05:28:25;13.00;;;9.40;;
4553;SDS011;2289;48.316;15.174;2022-12-29T05:30:55;9.80;;;6.63;;
4553;SDS011;2289;48.316;15.174;2022-12-29T05:33:25;8.03;;;5.10;;
4553;SDS011;2289;48.316;15.174;2022-12-29T05:35:54;5.47;;;3.83;;
4553;SDS011;2289;48.316;15.174;2022-12-29T05:38:23;4.90;;;3.77;;
4553;SDS011;2289;48.316;15.174;2022-12-29T05:40:52;4.07;;;3.03;;
4553;SDS011;2289;48.316;15.174;2022-12-29T05:43:20;1.87;;;1.77;;
4553;SDS011;2289;48.316;15.174;2022-12-29T05:45:49;2.90;;;1.60;;
4553;SDS011;2289;48.316;15.174;2022-12-29T05:48:19;3.30;;;2.40;;
4553;SDS011;2289;48.316;15.174;2022-12-29T05:50:49;2.40;;;1.83;;
4553;SDS011;2289;48.316;15.174;2022-12-29T05:53:18;2.07;;;1.87;;
4553;SDS011;2289;48.316;15.174;2022-12-29T05:55:47;1.80;;;1.13;;
4553;SDS011;2289;48.316;15.174;2022-12-29T05:58:16;1.10;;;1.00;;
4553;SDS011;2289;48.316;15.174;2022-12-29T06:00:45;1.03;;;1.00;;
4553;SDS011;2289;48.316;15.174;2022-12-29T06:03:25;1.10;;;1.00;;
4553;SDS011;2289;48.316;15.174;2022-12-29T06:05:54;6.03;;;1.40;;
4553;SDS011;2289;48.316;15.174;2022-12-29T06:08:23;4.50;;;1.10;;
4553;SDS011;2289;48.316;15.174;2022-12-29T06:10:51;2.20;;;1.27;;
4553;SDS011;2289;48.316;15.174;2022-12-29T06:13:20;4.10;;;1.13;;
4553;SDS011;2289;48.316;15.174;2022-12-29T06:15:49;1.30;;;1.20;;
4553;SDS011;2289;48.316;15.174;2022-12-29T06:18:18;3.17;;;1.07;;
4553;SDS011;2289;48.316;15.174;2022-12-29T06:20:47;1.90;;;0.93;;
4553;SDS011;2289;48.316;15.174;2022-12-29T06:23:16;2.20;;;1.30;;
4553;SDS011;2289;48.316;15.174;2022-12-29T06:25:46;1.50;;;1.20;;
4553;SDS011;2289;48.316;15.174;2022-12-29T06:28:15;1.87;;;1.50;;
4553;SDS011;2289;48.316;15.174;2022-12-29T06:30:44;1.37;;;1.20;;
4553;SDS011;2289;48.316;15.174;2022-12-29T06:33:13;1.80;;;1.20;;
4553;SDS011;2289;48.316;15.174;2022-12-29T06:35:43;2.87;;;1.07;;
4553;SDS011;2289;48.316;15.174;2022-12-29T06:38:15;3.73;;;1.10;;
4553;SDS011;2289;48.316;15.174;2022-12-29T06:40:45;1.33;;;1.13;;
4553;SDS011;2289;48.316;15.174;2022-12-29T06:43:14;3.90;;;1.87;;
4553;SDS011;2289;48.316;15.174;2022-12-29T06:45:43;2.40;;;1.40;;
4553;SDS011;2289;48.316;15.174;2022-12-29T06:48:12;4.40;;;3.20;;
4553;SDS011;2289;48.316;15.174;2022-12-29T06:50:41;4.20;;;3.27;;
4553;SDS011;2289;48.316;15.174;2022-12-29T06:53:10;12.27;;;7.70;;
4553;SDS011;2289;48.316;15.174;2022-12-29T06:55:40;27.03;;;14.27;;
4553;SDS011;2289;48.316;15.174;2022-12-29T06:58:12;15.70;;;11.93;;
4553;SDS011;2289;48.316;15.174;2022-12-29T07:00:41;12.40;;;8.37;;
4553;SDS011;2289;48.316;15.174;2022-12-29T07:03:27;13.53;;;8.00;;
4553;SDS011;2289;48.316;15.174;2022-12-29T07:05:55;10.00;;;7.60;;
4553;SDS011;2289;48.316;15.174;2022-12-29T07:08:24;7.27;;;5.70;;
4553;SDS011;2289;48.316;15.174;2022-12-29T07:10:54;7.77;;;6.40;;
4553;SDS011;2289;48.316;15.174;2022-12-29T07:13:24;10.50;;;5.63;;
4553;SDS011;2289;48.316;15.174;2022-12-29T07:15:53;8.53;;;4.57;;
4553;SDS011;2289;48.316;15.174;2022-12-29T07:18:22;10.30;;;6.53;;
4553;SDS011;2289;48.316;15.174;2022-12-29T07:20:51;9.23;;;5.20;;
4553;SDS011;2289;48.316;15.174;2022-12-29T07:23:19;9.07;;;5.80;;
4553;SDS011;2289;48.316;15.174;2022-12-29T07:25:47;19.10;;;6.20;;
4553;SDS011;2289;48.316;15.174;2022-12-29T07:28:17;7.77;;;5.07;;
4553;SDS011;2289;48.316;15.174;2022-12-29T07:30:46;8.53;;;4.83;;
4553;SDS011;2289;48.316;15.174;2022-12-29T07:33:15;5.80;;;4.83;;
4553;SDS011;2289;48.316;15.174;2022-12-29T07:35:43;8.90;;;4.73;;
4553;SDS011;2289;48.316;15.174;2022-12-29T07:38:12;16.83;;;5.70;;
4553;SDS011;2289;48.316;15.174;2022-12-29T07:40:41;13.10;;;7.53;;
4553;SDS011;2289;48.316;15.174;2022-12-29T07:43:14;12.87;;;7.93;;
4553;SDS011;2289;48.316;15.174;2022-12-29T07:45:44;26.53;;;15.30;;
4553;SDS011;2289;48.316;15.174;2022-12-29T07:48:13;25.57;;;14.40;;
4553;SDS011;2289;48.316;15.174;2022-12-29T07:50:42;35.20;;;22.40;;
4553;SDS011;2289;48.316;15.174;2022-12-29T07:53:11;27.90;;;16.80;;
4553;SDS011;2289;48.316;15.174;2022-12-29T07:55:39;28.33;;;16.80;;
4553;SDS011;2289;48.316;15.174;2022-12-29T07:58:11;32.67;;;19.83;;
4553;SDS011;2289;48.316;15.174;2022-12-29T08:00:40;32.33;;;16.70;;
4553;SDS011;2289;48.316;15.174;2022-12-29T08:03:11;24.40;;;13.83;;
4553;SDS011;2289;48.316;15.174;2022-12-29T08:05:42;11.10;;;7.60;;
4553;SDS011;2289;48.316;15.174;2022-12-29T08:08:12;7.50;;;4.43;;
4553;SDS011;2289;48.316;15.174;2022-12-29T08:10:41;8.50;;;5.07;;
4553;SDS011;2289;48.316;15.174;2022-12-29T08:13:09;7.30;;;4.13;;
4553;SDS011;2289;48.316;15.174;2022-12-29T08:15:39;3.97;;;2.93;;
4553;SDS011;2289;48.316;15.174;2022-12-29T08:18:12;3.07;;;2.80;;
4553;SDS011;2289;48.316;15.174;2022-12-29T08:20:41;6.37;;;3.17;;
4553;SDS011;2289;48.316;15.174;2022-12-29T08:23:09;10.37;;;5.23;;
4553;SDS011;2289;48.316;15.174;2022-12-29T08:25:38;15.47;;;4.00;;
4553;SDS011;2289;48.316;15.174;2022-12-29T08:28:07;3.87;;;3.50;;
4553;SDS011;2289;48.316;15.174;2022-12-29T08:30:36;5.33;;;3.60;;
4553;SDS011;2289;48.316;15.174;2022-12-29T08:33:06;5.83;;;3.87;;
4553;SDS011;2289;48.316;15.174;2022-12-29T08:36:16;7.43;;;6.10;;
4553;SDS011;2289;48.316;15.174;2022-12-29T08:38:44;4.23;;;3.83;;
4553;SDS011;2289;48.316;15.174;2022-12-29T08:41:13;9.70;;;4.07;;
4553;SDS011;2289;48.316;15.174;2022-12-29T08:43:45;4.07;;;3.03;;
4553;SDS011;2289;48.316;15.174;2022-12-29T08:46:32;3.90;;;3.43;;
4553;SDS011;2289;48.316;15.174;2022-12-29T08:49:10;5.50;;;3.77;;
4553;SDS011;2289;48.316;15.174;2022-12-29T08:51:40;9.90;;;4.00;;
4553;SDS011;2289;48.316;15.174;2022-12-29T08:54:09;5.73;;;3.53;;
4553;SDS011;2289;48.316;15.174;2022-12-29T08:56:38;12.33;;;4.40;;
4553;SDS011;2289;48.316;15.174;2022-12-29T08:59:09;7.97;;;4.40;;
4553;SDS011;2289;48.316;15.174;2022-12-29T09:01:38;8.93;;;3.90;;
4553;SDS011;2289;48.316;15.174;2022-12-29T09:04:11;8.80;;;4.10;;
4553;SDS011;2289;48.316;15.174;2022-12-29T09:06:44;4.20;;;3.37;;
4553;SDS011;2289;48.316;15.174;2022-12-29T09:09:13;13.70;;;3.97;;
4553;SDS011;2289;48.316;15.174;2022-12-29T09:14:41;9.20;;;6.53;;
4553;SDS011;2289;48.316;15.174;2022-12-29T09:17:11;11.70;;;5.20;;
4553;SDS011;2289;48.316;15.174;2022-12-29T09:19:57;4.43;;;3.30;;
4553;SDS011;2289;48.316;15.174;2022-12-29T09:22:27;3.27;;;2.97;;
4553;SDS011;2289;48.316;15.174;2022-12-29T09:24:56;8.37;;;4.37;;
4553;SDS011;2289;48.316;15.174;2022-12-29T09:27:25;10.70;;;3.60;;
4553;SDS011;2289;48.316;15.174;2022-12-29T09:29:53;5.60;;;3.53;;
4553;SDS011;2289;48.316;15.174;2022-12-29T09:32:22;4.23;;;3.37;;
4553;SDS011;2289;48.316;15.174;2022-12-29T09:34:56;3.90;;;2.80;;
4553;SDS011;2289;48.316;15.174;2022-12-29T09:37:25;2.97;;;2.47;;
4553;SDS011;2289;48.316;15.174;2022-12-29T09:39:56;3.50;;;2.90;;
4553;SDS011;2289;48.316;15.174;2022-12-29T09:42:26;9.40;;;3.37;;
4553;SDS011;2289;48.316;15.174;2022-12-29T09:45:01;3.10;;;2.60;;
4553;SDS011;2289;48.316;15.174;2022-12-29T09:47:35;4.50;;;3.70;;
4553;SDS011;2289;48.316;15.174;2022-12-29T09:50:05;6.43;;;2.97;;
4553;SDS011;2289;48.316;15.174;2022-12-29T09:52:47;6.23;;;4.27;;
4553;SDS011;2289;48.316;15.174;2022-12-29T09:55:17;7.97;;;3.53;;
4553;SDS011;2289;48.316;15.174;2022-12-29T09:57:52;5.73;;;4.00;;
4553;SDS011;2289;48.316;15.174;2022-12-29T10:00:25;7.53;;;4.07;;
4553;SDS011;2289;48.316;15.174;2022-12-29T10:02:58;3.80;;;2.70;;
4553;SDS011;2289;48.316;15.174;2022-12-29T10:05:30;3.53;;;2.53;;
4553;SDS011;2289;48.316;15.174;2022-12-29T10:08:14;5.67;;;3.20;;
4553;SDS011;2289;48.316;15.174;2022-12-29T10:10:51;6.07;;;4.03;;
4553;SDS011;2289;48.316;15.174;2022-12-29T10:13:28;3.80;;;3.10;;
4553;SDS011;2289;48.316;15.174;2022-12-29T10:16:02;14.30;;;6.97;;
4553;SDS011;2289;48.316;15.174;2022-12-29T10:21:46;4.03;;;3.70;;
4553;SDS011;2289;48.316;15.174;2022-12-29T10:24:23;5.67;;;3.40;;
4553;SDS011;2289;48.316;15.174;2022-12-29T10:26:53;11.27;;;3.83;;
4553;SDS011;2289;48.316;15.174;2022-12-29T10:29:24;4.70;;;3.60;;
4553;SDS011;2289;48.316;15.174;2022-12-29T10:31:58;5.87;;;2.63;;
4553;SDS011;2289;48.316;15.174;2022-12-29T10:34:29;13.70;;;6.20;;
4553;SDS011;2289;48.316;15.174;2022-12-29T10:37:02;6.97;;;4.67;;
4553;SDS011;2289;48.316;15.174;2022-12-29T10:39:36;8.60;;;5.00;;
4553;SDS011;2289;48.316;15.174;2022-12-29T10:42:11;4.80;;;4.27;;
4553;SDS011;2289;48.316;15.174;2022-12-29T10:44:43;4.43;;;3.10;;
4553;SDS011;2289;48.316;15.174;2022-12-29T10:47:13;4.70;;;3.53;;
4553;SDS011;2289;48.316;15.174;2022-12-29T10:49:45;5.13;;;2.83;;
4553;SDS011;2289;48.316;15.174;2022-12-29T10:52:17;2.60;;;2.40;;
4553;SDS011;2289;48.316;15.174;2022-12-29T10:55:00;5.10;;;3.17;;
4553;SDS011;2289;48.316;15.174;2022-12-29T10:57:31;6.70;;;4.90;;
4553;SDS011;2289;48.316;15.174;2022-12-29T11:00:01;6.23;;;3.93;;
4553;SDS011;2289;48.316;15.174;2022-12-29T11:02:43;7.17;;;5.90;;
4553;SDS011;2289;48.316;15.174;2022-12-29T11:05:19;10.10;;;6.30;;
4553;SDS011;2289;48.316;15.174;2022-12-29T11:07:52;23.33;;;15.93;;
4553;SDS011;2289;48.316;15.174;2022-12-29T11:10:30;36.47;;;23.83;;
4553;SDS011;2289;48.316;15.174;2022-12-29T11:13:04;32.80;;;22.30;;
4553;SDS011;2289;48.316;15.174;2022-12-29T11:15:44;32.30;;;18.30;;
4553;SDS011;2289;48.316;15.174;2022-12-29T11:23:55;9.33;;;6.23;;
4553;SDS011;2289;48.316;15.174;2022-12-29T11:26:26;12.53;;;7.77;;
4553;SDS011;2289;48.316;15.174;2022-12-29T11:29:16;16.23;;;8.07;;
4553;SDS011;2289;48.316;15.174;2022-12-29T11:31:49;10.03;;;5.60;;
4553;SDS011;2289;48.316;15.174;2022-12-29T11:34:20;4.93;;;3.70;;
4553;SDS011;2289;48.316;15.174;2022-12-29T11:36:51;5.73;;;3.47;;
4553;SDS011;2289;48.316;15.174;2022-12-29T11:39:32;7.57;;;3.50;;
4553;SDS011;2289;48.316;15.174;2022-12-29T11:42:04;3.87;;;3.03;;
4553;SDS011;2289;48.316;15.174;2022-12-29T11:44:36;5.00;;;3.30;;
4553;SDS011;2289;48.316;15.174;2022-12-29T11:47:06;4.77;;;3.83;;
4553;SDS011;2289;48.316;15.174;2022-12-29T11:49:37;10.10;;;3.70;;
4553;SDS011;2289;48.316;15.174;2022-12-29T11:52:06;8.23;;;5.53;;
4553;SDS011;2289;48.316;15.174;2022-12-29T11:54:36;7.10;;;6.20;;
4553;SDS011;2289;48.316;15.174;2022-12-29T11:57:11;11.53;;;6.70;;
4553;SDS011;2289;48.316;15.174;2022-12-29T11:59:42;10.93;;;5.70;;
4553;SDS011;2289;48.316;15.174;2022-12-29T12:05:40;6.93;;;4.63;;
4553;SDS011;2289;48.316;15.174;2022-12-29T12:08:12;7.93;;;5.50;;
4553;SDS011;2289;48.316;15.174;2022-12-29T12:10:48;15.43;;;7.93;;
4553;SDS011;2289;48.316;15.174;2022-12-29T12:13:25;11.83;;;7.13;;
4553;SDS011;2289;48.316;15.174;2022-12-29T12:15:57;10.07;;;6.10;;
4553;SDS011;2289;48.316;15.174;2022-12-29T12:21:43;8.87;;;4.90;;
4553;SDS011;2289;48.316;15.174;2022-12-29T12:24:20;5.07;;;3.10;;
4553;SDS011;2289;48.316;15.174;2022-12-29T12:26:59;8.60;;;3.40;;
4553;SDS011;2289;48.316;15.174;2022-12-29T12:29:48;5.47;;;2.70;;
4553;SDS011;2289;48.316;15.174;2022-12-29T12:32:20;2.53;;;1.97;;
4553;SDS011;2289;48.316;15.174;2022-12-29T12:34:51;2.37;;;2.17;;
4553;SDS011;2289;48.316;15.174;2022-12-29T12:37:28;4.80;;;3.93;;
4553;SDS011;2289;48.316;15.174;2022-12-29T12:40:23;6.27;;;3.50;;
4553;SDS011;2289;48.316;15.174;2022-12-29T12:43:25;6.20;;;5.33;;
4553;SDS011;2289;48.316;15.174;2022-12-29T12:46:07;7.17;;;4.63;;
4553;SDS011;2289;48.316;15.174;2022-12-29T12:48:54;6.50;;;4.60;;
4553;SDS011;2289;48.316;15.174;2022-12-29T12:51:37;5.33;;;2.97;;
4553;SDS011;2289;48.316;15.174;2022-12-29T12:54:16;6.53;;;3.40;;
4553;SDS011;2289;48.316;15.174;2022-12-29T12:56:55;6.70;;;4.37;;
4553;SDS011;2289;48.316;15.174;2022-12-29T13:02:24;3.47;;;2.50;;
4553;SDS011;2289;48.316;15.174;2022-12-29T13:07:58;5.20;;;2.80;;
4553;SDS011;2289;48.316;15.174;2022-12-29T13:10:49;3.33;;;2.53;;
4553;SDS011;2289;48.316;15.174;2022-12-29T13:13:33;4.00;;;3.43;;
4553;SDS011;2289;48.316;15.174;2022-12-29T13:16:24;5.50;;;3.50;;
4553;SDS011;2289;48.316;15.174;2022-12-29T13:18:58;3.80;;;3.50;;
4553;SDS011;2289;48.316;15.174;2022-12-29T13:21:35;5.77;;;4.90;;
4553;SDS011;2289;48.316;15.174;2022-12-29T13:24:19;6.80;;;3.87;;
4553;SDS011;2289;48.316;15.174;2022-12-29T13:26:54;7.90;;;3.70;;
4553;SDS011;2289;48.316;15.174;2022-12-29T13:29:30;9.77;;;5.70;;
4553;SDS011;2289;48.316;15.174;2022-12-29T13:32:07;6.47;;;4.53;;
4553;SDS011;2289;48.316;15.174;2022-12-29T13:34:53;1.60;;;1.50;;
4553;SDS011;2289;48.316;15.174;2022-12-29T13:37:30;3.67;;;1.90;;
4553;SDS011;2289;48.316;15.174;2022-12-29T13:40:01;2.23;;;1.40;;
4553;SDS011;2289;48.316;15.174;2022-12-29T13:42:31;9.03;;;3.13;;
4553;SDS011;2289;48.316;15.174;2022-12-29T13:45:01;6.43;;;3.47;;
4553;SDS011;2289;48.316;15.174;2022-12-29T13:47:32;15.73;;;4.93;;
4553;SDS011;2289;48.316;15.174;2022-12-29T13:50:05;20.33;;;5.67;;
4553;SDS011;2289;48.316;15.174;2022-12-29T13:52:43;10.30;;;4.07;;
4553;SDS011;2289;48.316;15.174;2022-12-29T13:55:25;13.53;;;3.60;;
4553;SDS011;2289;48.316;15.174;2022-12-29T13:57:58;5.73;;;3.30;;
4553;SDS011;2289;48.316;15.174;2022-12-29T14:00:31;3.27;;;2.30;;
4553;SDS011;2289;48.316;15.174;2022-12-29T14:06:11;8.03;;;3.37;;
4553;SDS011;2289;48.316;15.174;2022-12-29T14:08:47;8.37;;;3.03;;
4553;SDS011;2289;48.316;15.174;2022-12-29T14:11:16;9.10;;;4.00;;
4553;SDS011;2289;48.316;15.174;2022-12-29T14:13:46;4.70;;;3.30;;
4553;SDS011;2289;48.316;15.174;2022-12-29T14:16:29;6.60;;;3.80;;
4553;SDS011;2289;48.316;15.174;2022-12-29T14:19:08;4.90;;;3.27;;
4553;SDS011;2289;48.316;15.174;2022-12-29T14:21:51;4.80;;;3.10;;
4553;SDS011;2289;48.316;15.174;2022-12-29T14:33:16;4.50;;;2.87;;
4553;SDS011;2289;48.316;15.174;2022-12-29T14:35:46;6.60;;;2.40;;
4553;SDS011;2289;48.316;15.174;2022-12-29T14:38:21;5.63;;;2.60;;
4553;SDS011;2289;48.316;15.174;2022-12-29T14:40:51;11.57;;;7.73;;
4553;SDS011;2289;48.316;15.174;2022-12-29T14:43:23;9.80;;;5.13;;
4553;SDS011;2289;48.316;15.174;2022-12-29T14:45:57;6.37;;;4.13;;
4553;SDS011;2289;48.316;15.174;2022-12-29T14:48:34;3.77;;;2.40;;
4553;SDS011;2289;48.316;15.174;2022-12-29T14:51:18;8.63;;;5.00;;
4553;SDS011;2289;48.316;15.174;2022-12-29T14:53:50;3.40;;;2.23;;
4553;SDS011;2289;48.316;15.174;2022-12-29T14:56:20;4.00;;;2.10;;
4553;SDS011;2289;48.316;15.174;2022-12-29T14:58:54;8.57;;;2.47;;
4553;SDS011;2289;48.316;15.174;2022-12-29T15:01:42;7.20;;;3.03;;
4553;SDS011;2289;48.316;15.174;2022-12-29T15:04:15;5.37;;;2.23;;
4553;SDS011;2289;48.316;15.174;2022-12-29T15:06:45;7.30;;;3.07;;
4553;SDS011;2289;48.316;15.174;2022-12-29T15:09:19;13.73;;;2.87;;
4553;SDS011;2289;48.316;15.174;2022-12-29T15:11:53;6.07;;;2.27;;
4553;SDS011;2289;48.316;15.174;2022-12-29T15:14:30;2.50;;;1.43;;
4553;SDS011;2289;48.316;15.174;2022-12-29T15:17:09;6.33;;;2.20;;
4553;SDS011;2289;48.316;15.174;2022-12-29T15:19:39;10.93;;;2.20;;
4553;SDS011;2289;48.316;15.174;2022-12-29T15:22:14;10.67;;;3.83;;
4553;SDS011;2289;48.316;15.174;2022-12-29T15:24:44;7.80;;;3.47;;
4553;SDS011;2289;48.316;15.174;2022-12-29T15:27:14;2.40;;;1.83;;
4553;SDS011;2289;48.316;15.174;2022-12-29T15:29:44;3.77;;;1.60;;
4553;SDS011;2289;48.316;15.174;2022-12-29T15:32:19;5.80;;;1.63;;
4553;SDS011;2289;48.316;15.174;2022-12-29T15:34:50;5.80;;;1.83;;
4553;SDS011;2289;48.316;15.174;2022-12-29T15:37:20;6.47;;;1.47;;
4553;SDS011;2289;48.316;15.174;2022-12-29T15:39:52;1.83;;;1.40;;
4553;SDS011;2289;48.316;15.174;2022-12-29T15:45:14;1.70;;;1.57;;
4553;SDS011;2289;48.316;15.174;2022-12-29T15:47:44;1.90;;;1.07;;
4553;SDS011;2289;48.316;15.174;2022-12-29T15:50:17;3.87;;;1.17;;
4553;SDS011;2289;48.316;15.174;2022-12-29T15:55:47;1.97;;;1.30;;
4553;SDS011;2289;48.316;15.174;2022-12-29T15:58:19;8.13;;;1.40;;
4553;SDS011;2289;48.316;15.174;2022-12-29T16:00:49;4.43;;;1.30;;
4553;SDS011;2289;48.316;15.174;2022-12-29T16:03:20;2.87;;;1.23;;
4553;SDS011;2289;48.316;15.174;2022-12-29T16:05:50;2.40;;;1.80;;
4553;SDS011;2289;48.316;15.174;2022-12-29T16:08:23;7.33;;;1.53;;
4553;SDS011;2289;48.316;15.174;2022-12-29T16:10:57;1.70;;;1.10;;
4553;SDS011;2289;48.316;15.174;2022-12-29T16:13:26;6.57;;;1.50;;
4553;SDS011;2289;48.316;15.174;2022-12-29T16:16:08;3.07;;;1.40;;
4553;SDS011;2289;48.316;15.174;2022-12-29T16:18:43;4.80;;;1.30;;
4553;SDS011;2289;48.316;15.174;2022-12-29T16:21:22;1.73;;;1.10;;
4553;SDS011;2289;48.316;15.174;2022-12-29T16:23:55;1.20;;;1.10;;
4553;SDS011;2289;48.316;15.174;2022-12-29T16:26:29;2.50;;;1.30;;